createdAt,value
2023-01-13T00:01:08.881Z,9.40
2023-01-13T00:03:37.045Z,9.50
2023-01-13T00:06:05.546Z,9.40
2023-01-13T00:08:33.968Z,9.50
2023-01-13T00:11:02.338Z,9.50
2023-01-13T00:13:31.855Z,9.50
2023-01-13T00:16:03.355Z,9.50
2023-01-13T00:18:31.977Z,9.60
2023-01-13T00:21:01.134Z,9.50
2023-01-13T00:23:30.305Z,9.50
2023-01-13T00:25:58.731Z,9.40
2023-01-13T00:28:27.398Z,9.40
2023-01-13T00:30:56.375Z,9.50
2023-01-13T00:33:26.459Z,9.50
2023-01-13T00:35:58.472Z,9.50
2023-01-13T00:38:26.666Z,9.50
2023-01-13T00:40:58.165Z,9.60
2023-01-13T00:43:26.761Z,9.50
2023-01-13T00:45:55.191Z,9.50
2023-01-13T00:48:26.139Z,9.50
2023-01-13T00:50:58.586Z,9.50
2023-01-13T00:53:27.787Z,9.60
2023-01-13T00:56:01.952Z,9.60
2023-01-13T00:58:32.717Z,9.60
2023-01-13T01:01:02.846Z,9.60
2023-01-13T01:03:32.525Z,9.60
2023-01-13T01:06:07.200Z,9.60
2023-01-13T01:08:36.191Z,9.60
2023-01-13T01:11:05.224Z,9.60
2023-01-13T01:13:33.955Z,9.60
2023-01-13T01:16:06.711Z,9.60
2023-01-13T01:18:37.962Z,9.70
2023-01-13T01:21:06.780Z,9.70
2023-01-13T01:23:35.729Z,9.70
2023-01-13T01:26:05.376Z,9.70
2023-01-13T01:28:33.531Z,9.70
2023-01-13T01:31:02.058Z,9.70
2023-01-13T01:33:30.188Z,9.70
2023-01-13T01:36:01.471Z,9.70
2023-01-13T01:38:29.496Z,9.70
2023-01-13T01:40:58.377Z,9.70
2023-01-13T01:43:59.755Z,9.70
2023-01-13T01:46:29.572Z,9.70
2023-01-13T01:49:01.406Z,9.70
2023-01-13T01:51:34.392Z,9.60
2023-01-13T01:54:04.941Z,9.60
2023-01-13T01:56:35.859Z,9.60
2023-01-13T01:59:03.946Z,9.70
2023-01-13T02:01:33.746Z,9.60
2023-01-13T02:04:08.363Z,9.60
2023-01-13T02:06:37.897Z,9.60
2023-01-13T02:09:06.036Z,9.60
2023-01-13T02:11:53.183Z,9.70
2023-01-13T02:14:23.466Z,9.60
2023-01-13T02:17:04.670Z,9.70
2023-01-13T02:20:09.752Z,9.70
2023-01-13T02:23:01.982Z,9.60
2023-01-13T02:25:48.873Z,9.70
2023-01-13T02:29:03.268Z,9.70
2023-01-13T02:31:44.744Z,9.60
2023-01-13T02:34:17.261Z,9.70
2023-01-13T02:36:51.716Z,9.70
2023-01-13T02:39:24.876Z,9.60
2023-01-13T02:42:15.040Z,9.60
2023-01-13T02:44:47.172Z,9.70
2023-01-13T02:47:20.210Z,9.60
2023-01-13T02:49:51.569Z,9.60
2023-01-13T02:52:24.868Z,9.70
2023-01-13T02:54:58.299Z,9.70
2023-01-13T02:57:27.578Z,9.60
2023-01-13T02:59:56.916Z,9.70
2023-01-13T03:02:27.288Z,9.70
2023-01-13T03:04:57.084Z,9.60
2023-01-13T03:07:58.119Z,9.60
2023-01-13T03:11:02.589Z,9.70
2023-01-13T03:13:51.998Z,9.70
2023-01-13T03:16:32.768Z,9.60
2023-01-13T03:19:20.648Z,9.60
2023-01-13T03:21:54.647Z,9.60
2023-01-13T03:24:28.547Z,9.60
2023-01-13T03:27:03.002Z,9.60
2023-01-13T03:29:38.007Z,9.60
2023-01-13T03:32:12.216Z,9.60
2023-01-13T03:34:48.432Z,9.70
2023-01-13T03:37:20.358Z,9.60
2023-01-13T03:39:55.138Z,9.60
2023-01-13T03:42:26.700Z,9.60
2023-01-13T03:44:57.575Z,9.60
2023-01-13T03:47:33.297Z,9.60
2023-01-13T03:50:06.014Z,9.60
2023-01-13T03:52:38.154Z,9.50
2023-01-13T03:55:10.760Z,9.60
2023-01-13T03:57:44.629Z,9.60
2023-01-13T04:00:15.195Z,9.60
2023-01-13T04:02:51.398Z,9.60
2023-01-13T04:05:21.323Z,9.60
2023-01-13T04:08:01.033Z,9.60
2023-01-13T04:10:33.652Z,9.60
2023-01-13T04:13:05.962Z,9.60
2023-01-13T04:15:37.671Z,9.60
2023-01-13T04:18:21.734Z,9.60
2023-01-13T04:20:53.060Z,9.60
2023-01-13T04:23:22.383Z,9.60
2023-01-13T04:25:51.672Z,9.70
2023-01-13T04:28:20.278Z,9.60
2023-01-13T04:30:49.228Z,9.60
2023-01-13T04:33:19.284Z,9.60
2023-01-13T04:35:48.691Z,9.60
2023-01-13T04:38:19.442Z,9.60
2023-01-13T04:40:48.464Z,9.60
2023-01-13T04:43:16.749Z,9.70
2023-01-13T04:45:45.061Z,9.70
2023-01-13T04:48:13.581Z,9.70
2023-01-13T04:50:41.679Z,9.60
2023-01-13T04:53:09.951Z,9.60
2023-01-13T04:55:39.563Z,9.70
2023-01-13T04:58:09.488Z,9.70
2023-01-13T05:00:38.349Z,9.60
2023-01-13T05:03:07.015Z,9.70
2023-01-13T05:05:35.298Z,9.60
2023-01-13T05:08:03.357Z,9.60
2023-01-13T05:10:31.366Z,9.60
2023-01-13T05:13:18.380Z,9.70
2023-01-13T05:16:06.479Z,9.70
2023-01-13T05:18:34.869Z,9.60
2023-01-13T05:21:03.418Z,9.60
2023-01-13T05:23:49.073Z,9.60
2023-01-13T05:26:17.371Z,9.50
2023-01-13T05:28:46.910Z,9.60
2023-01-13T05:31:15.487Z,9.70
2023-01-13T05:33:43.658Z,9.70
2023-01-13T05:36:11.761Z,9.60
2023-01-13T05:38:40.354Z,9.60
2023-01-13T05:41:26.847Z,9.70
2023-01-13T05:43:56.244Z,9.60
2023-01-13T05:46:24.486Z,9.60
2023-01-13T05:48:52.536Z,9.70
2023-01-13T05:51:26.153Z,9.70
2023-01-13T05:53:54.325Z,9.70
2023-01-13T05:56:22.466Z,9.70
2023-01-13T05:58:50.539Z,9.70
2023-01-13T06:01:20.022Z,9.70
2023-01-13T06:03:48.144Z,9.70
2023-01-13T06:06:16.264Z,9.70
2023-01-13T06:08:44.361Z,9.70
2023-01-13T06:11:12.507Z,9.60
2023-01-13T06:13:40.616Z,9.70
2023-01-13T06:16:09.081Z,9.70
2023-01-13T06:18:38.544Z,9.70
2023-01-13T06:21:06.909Z,9.80
2023-01-13T06:23:38.576Z,9.80
2023-01-13T06:26:13.259Z,9.80
2023-01-13T06:28:41.437Z,9.90
2023-01-13T06:31:10.537Z,9.80
2023-01-13T06:33:45.417Z,9.70
2023-01-13T06:36:17.705Z,9.70
2023-01-13T06:38:49.894Z,9.80
2023-01-13T06:41:39.079Z,9.70
2023-01-13T06:44:06.494Z,9.80
2023-01-13T06:46:35.728Z,9.70
2023-01-13T06:49:05.342Z,9.70
2023-01-13T06:51:33.468Z,9.70
2023-01-13T06:54:02.741Z,9.60
2023-01-13T06:56:30.946Z,9.70
2023-01-13T06:58:59.073Z,9.70
2023-01-13T07:01:27.263Z,9.70
2023-01-13T07:03:55.522Z,9.80
2023-01-13T07:06:25.120Z,9.70
2023-01-13T07:08:53.324Z,9.70
2023-01-13T07:11:21.702Z,9.80
2023-01-13T07:14:07.611Z,9.80
2023-01-13T07:16:35.739Z,9.70
2023-01-13T07:19:03.912Z,9.70
2023-01-13T07:21:33.746Z,9.80
2023-01-13T07:24:01.882Z,9.70
2023-01-13T07:26:29.986Z,9.70
2023-01-13T07:28:59.145Z,9.60
2023-01-13T07:31:27.206Z,9.60
2023-01-13T07:33:55.302Z,9.60
2023-01-13T07:36:23.443Z,9.70
2023-01-13T07:38:54.860Z,9.80
2023-01-13T07:41:40.636Z,9.70
2023-01-13T07:44:10.813Z,9.80
2023-01-13T07:46:39.301Z,9.90
2023-01-13T07:49:08.249Z,9.90
2023-01-13T07:51:38.118Z,9.80
2023-01-13T07:54:08.215Z,9.90
2023-01-13T07:56:36.327Z,9.80
2023-01-13T07:59:05.117Z,9.80
2023-01-13T08:01:33.307Z,9.80
2023-01-13T08:04:01.513Z,9.80
2023-01-13T08:06:29.689Z,9.80
2023-01-13T08:08:57.765Z,9.80
2023-01-13T08:11:27.181Z,9.80
2023-01-13T08:13:57.460Z,9.90
2023-01-13T08:16:25.827Z,9.90
2023-01-13T08:18:54.140Z,10.00
2023-01-13T08:21:22.304Z,10.10
2023-01-13T08:23:50.499Z,10.10
2023-01-13T08:26:19.778Z,10.10
2023-01-13T08:28:49.184Z,10.10
2023-01-13T08:31:19.792Z,10.10
2023-01-13T08:33:48.171Z,10.00
2023-01-13T08:36:18.353Z,9.80
2023-01-13T08:38:46.519Z,9.80
2023-01-13T08:41:37.124Z,9.80
2023-01-13T08:44:07.307Z,9.90
2023-01-13T08:46:35.497Z,9.70
2023-01-13T08:49:04.133Z,9.70
2023-01-13T08:51:32.220Z,9.80
2023-01-13T08:54:00.344Z,9.80
2023-01-13T08:56:28.474Z,9.80
2023-01-13T08:58:59.047Z,9.70
2023-01-13T09:01:29.587Z,9.70
2023-01-13T09:03:57.927Z,9.80
2023-01-13T09:06:26.221Z,9.60
2023-01-13T09:08:54.408Z,9.70
2023-01-13T09:11:50.507Z,9.60
2023-01-13T09:14:20.215Z,9.70
2023-01-13T09:16:49.871Z,9.60
2023-01-13T09:19:18.038Z,9.80
2023-01-13T09:21:46.185Z,9.80
2023-01-13T09:24:14.369Z,9.70
2023-01-13T09:26:42.692Z,9.70
2023-01-13T09:29:11.346Z,9.60
2023-01-13T09:31:39.512Z,9.60
2023-01-13T09:34:29.060Z,9.60
2023-01-13T09:36:57.286Z,9.70
2023-01-13T09:39:25.418Z,9.70
2023-01-13T09:42:16.490Z,9.60
2023-01-13T09:44:50.082Z,9.60
2023-01-13T09:47:26.053Z,9.60
2023-01-13T09:50:00.180Z,9.70
2023-01-13T09:52:29.603Z,9.60
2023-01-13T09:55:03.594Z,9.60
2023-01-13T09:57:36.515Z,9.60
2023-01-13T10:00:11.959Z,9.50
2023-01-13T10:03:02.137Z,9.50
2023-01-13T10:05:37.712Z,9.50
2023-01-13T10:08:12.329Z,9.50
2023-01-13T10:10:45.452Z,9.50
2023-01-13T10:13:20.253Z,9.50
2023-01-13T10:16:02.926Z,9.50
2023-01-13T10:18:44.444Z,9.40
2023-01-13T10:21:28.675Z,9.70
2023-01-13T10:24:03.507Z,10.30
2023-01-13T10:26:48.299Z,10.50
2023-01-13T10:29:21.885Z,11.30
2023-01-13T10:31:50.251Z,12.10
2023-01-13T10:34:18.543Z,12.10
2023-01-13T10:37:00.446Z,11.90
2023-01-13T10:39:29.550Z,11.60
2023-01-13T10:42:04.998Z,11.30
2023-01-13T10:44:33.329Z,11.10
2023-01-13T10:47:01.579Z,10.70
2023-01-13T10:49:36.656Z,10.40
2023-01-13T10:52:26.518Z,10.30
2023-01-13T10:54:55.901Z,10.20
2023-01-13T10:57:26.994Z,10.10
2023-01-13T10:59:55.575Z,10.00
2023-01-13T11:02:29.620Z,9.80
2023-01-13T11:05:19.489Z,9.70
2023-01-13T11:07:52.594Z,9.60
2023-01-13T11:10:24.125Z,9.50
2023-01-13T11:12:59.641Z,9.60
2023-01-13T11:15:40.276Z,9.50
2023-01-13T11:18:16.340Z,9.30
2023-01-13T11:20:48.434Z,9.30
2023-01-13T11:23:25.319Z,9.40
2023-01-13T11:25:57.961Z,9.30
2023-01-13T11:28:43.384Z,9.30
2023-01-13T11:31:18.666Z,9.30
2023-01-13T11:33:52.282Z,9.30
2023-01-13T11:36:25.969Z,9.30
2023-01-13T11:38:57.426Z,9.10
2023-01-13T11:41:32.563Z,9.10
2023-01-13T11:44:09.247Z,9.10
2023-01-13T11:46:37.951Z,9.20
2023-01-13T11:49:06.635Z,9.10
2023-01-13T11:51:39.372Z,9.10
2023-01-13T11:54:25.588Z,9.10
2023-01-13T11:57:19.091Z,9.10
2023-01-13T12:00:04.049Z,9.20
2023-01-13T12:02:48.768Z,9.30
2023-01-13T12:05:24.902Z,9.20
2023-01-13T12:08:03.078Z,9.20
2023-01-13T12:10:43.950Z,9.30
2023-01-13T12:13:21.838Z,9.10
2023-01-13T12:16:10.984Z,9.20
2023-01-13T12:19:05.035Z,9.30
2023-01-13T12:21:37.771Z,9.40
2023-01-13T12:24:19.199Z,9.50
2023-01-13T12:26:55.557Z,9.60
2023-01-13T12:29:31.915Z,9.80
2023-01-13T12:32:03.149Z,10.00
2023-01-13T12:34:42.362Z,10.30
2023-01-13T12:37:16.142Z,10.40
2023-01-13T12:39:58.185Z,10.60
2023-01-13T12:42:52.682Z,10.60
2023-01-13T12:45:25.921Z,10.70
2023-01-13T12:47:54.205Z,10.70
2023-01-13T12:50:44.068Z,10.70
2023-01-13T12:53:36.598Z,10.80
2023-01-13T12:56:31.750Z,10.80
2023-01-13T12:59:49.972Z,10.80
2023-01-13T13:03:07.811Z,10.80
2023-01-13T13:05:46.132Z,10.90
2023-01-13T13:08:21.729Z,10.90
2023-01-13T13:11:03.123Z,10.90
2023-01-13T13:13:46.113Z,11.00
2023-01-13T13:16:46.481Z,11.10
2023-01-13T13:19:44.799Z,11.10
2023-01-13T13:22:38.159Z,11.10
2023-01-13T13:25:23.453Z,11.10
2023-01-13T13:28:14.733Z,11.10
2023-01-13T13:31:04.481Z,11.00
2023-01-13T13:33:49.005Z,11.00
2023-01-13T13:36:50.998Z,11.00
2023-01-13T13:39:54.326Z,11.00
2023-01-13T13:42:51.931Z,11.00
2023-01-13T13:45:40.452Z,11.00
2023-01-13T13:48:25.055Z,11.00
2023-01-13T13:50:58.043Z,11.10
2023-01-13T13:53:32.222Z,11.20
2023-01-13T13:56:03.036Z,11.30
2023-01-13T13:58:36.551Z,11.00
2023-01-13T14:01:06.207Z,10.90
2023-01-13T14:03:39.002Z,10.80
2023-01-13T14:06:22.067Z,10.70
2023-01-13T14:08:52.241Z,10.60
2023-01-13T14:11:27.710Z,10.50
2023-01-13T14:14:06.559Z,10.40
2023-01-13T14:16:36.484Z,10.30
2023-01-13T14:19:04.836Z,10.00
2023-01-13T14:21:33.192Z,10.10
2023-01-13T14:24:10.721Z,9.90
2023-01-13T14:26:39.344Z,9.70
2023-01-13T14:29:07.826Z,9.50
2023-01-13T14:31:37.190Z,9.50
2023-01-13T14:34:32.114Z,9.40
2023-01-13T14:36:56.227Z,9.20
2023-01-13T14:39:27.615Z,9.20
2023-01-13T14:41:55.915Z,9.20
2023-01-13T14:44:27.248Z,9.20
2023-01-13T14:46:57.334Z,9.20
2023-01-13T14:49:30.554Z,9.10
2023-01-13T14:52:07.001Z,9.40
2023-01-13T14:54:47.225Z,9.40
2023-01-13T14:57:17.837Z,9.50
2023-01-13T14:59:51.846Z,9.40
2023-01-13T15:02:44.122Z,9.20
2023-01-13T15:05:47.675Z,9.10
2023-01-13T15:08:35.780Z,9.10
2023-01-13T15:11:07.458Z,9.10
2023-01-13T15:13:48.216Z,9.10
2023-01-13T15:16:24.846Z,9.10
2023-01-13T15:18:54.192Z,9.00
2023-01-13T15:21:23.346Z,9.10
2023-01-13T15:23:51.981Z,9.10
2023-01-13T15:26:24.950Z,9.30
2023-01-13T15:28:54.249Z,9.20
2023-01-13T15:31:23.373Z,9.00
2023-01-13T15:33:51.739Z,8.90
2023-01-13T15:36:28.258Z,8.90
2023-01-13T15:38:56.681Z,8.80
2023-01-13T15:41:40.712Z,8.90
2023-01-13T15:44:29.114Z,8.90
2023-01-13T15:46:58.696Z,8.90
2023-01-13T15:49:34.774Z,8.70
2023-01-13T15:52:04.645Z,8.70
2023-01-13T15:54:32.945Z,8.50
2023-01-13T15:57:02.652Z,8.60
2023-01-13T15:59:30.887Z,8.60
2023-01-13T16:01:59.142Z,8.60
2023-01-13T16:04:27.393Z,8.60
2023-01-13T16:06:55.588Z,8.50
2023-01-13T16:09:23.795Z,8.40
2023-01-13T16:11:51.973Z,8.40
2023-01-13T16:14:21.526Z,8.40
2023-01-13T16:16:49.933Z,8.30
2023-01-13T16:19:18.102Z,8.20
2023-01-13T16:21:46.248Z,8.20
2023-01-13T16:24:14.471Z,8.10
2023-01-13T16:26:42.755Z,8.10
2023-01-13T16:29:12.641Z,8.00
2023-01-13T16:31:42.135Z,8.00
2023-01-13T16:34:10.403Z,8.00
2023-01-13T16:36:38.513Z,8.40
2023-01-13T16:39:20.210Z,8.50
2023-01-13T16:41:48.381Z,8.30
2023-01-13T16:44:16.698Z,8.40
2023-01-13T16:46:47.385Z,8.20
2023-01-13T16:49:17.134Z,8.10
2023-01-13T16:51:45.484Z,8.10
2023-01-13T16:54:14.318Z,8.00
2023-01-13T16:56:42.480Z,8.30
2023-01-13T16:59:13.595Z,8.40
2023-01-13T17:01:44.960Z,8.40
2023-01-13T17:04:18.065Z,8.40
2023-01-13T17:06:52.806Z,8.40
2023-01-13T17:09:23.200Z,8.40
2023-01-13T17:11:51.722Z,8.20
2023-01-13T17:14:23.108Z,8.50
2023-01-13T17:16:52.904Z,8.60
2023-01-13T17:19:24.026Z,8.50
2023-01-13T17:21:52.165Z,8.50
2023-01-13T17:24:20.380Z,8.50
2023-01-13T17:26:50.590Z,8.30
2023-01-13T17:29:21.839Z,8.50
2023-01-13T17:31:50.251Z,8.50
2023-01-13T17:34:18.546Z,8.50
2023-01-13T17:36:48.214Z,8.50
2023-01-13T17:39:17.632Z,8.60
2023-01-13T17:41:46.137Z,8.50
2023-01-13T17:44:15.427Z,8.60
2023-01-13T17:46:44.247Z,8.50
2023-01-13T17:49:13.024Z,8.60
2023-01-13T17:51:41.193Z,8.60
2023-01-13T17:54:12.440Z,8.60
2023-01-13T17:56:41.535Z,8.60
2023-01-13T17:59:10.731Z,8.50
2023-01-13T18:01:39.378Z,8.40
2023-01-13T18:04:07.781Z,8.40
2023-01-13T18:06:35.971Z,8.30
2023-01-13T18:09:04.030Z,8.30
2023-01-13T18:11:33.521Z,8.30
2023-01-13T18:14:01.741Z,8.30
2023-01-13T18:16:31.296Z,8.20
2023-01-13T18:19:20.347Z,8.20
2023-01-13T18:22:06.457Z,8.10
2023-01-13T18:24:52.700Z,8.10
2023-01-13T18:27:27.805Z,7.90
2023-01-13T18:29:58.189Z,7.80
2023-01-13T18:32:32.778Z,7.90
2023-01-13T18:35:06.675Z,8.00
2023-01-13T18:37:38.615Z,7.90
2023-01-13T18:40:09.271Z,7.70
2023-01-13T18:42:54.618Z,7.70
2023-01-13T18:45:25.287Z,7.70
2023-01-13T18:47:55.646Z,7.60
2023-01-13T18:50:23.701Z,7.70
2023-01-13T18:52:51.807Z,7.80
2023-01-13T18:55:20.183Z,7.50
2023-01-13T18:57:50.292Z,7.40
2023-01-13T19:00:20.594Z,7.60
2023-01-13T19:02:50.713Z,7.40
2023-01-13T19:05:19.468Z,7.50
2023-01-13T19:07:50.956Z,7.40
2023-01-13T19:10:19.905Z,7.60
2023-01-13T19:12:49.340Z,7.40
2023-01-13T19:15:17.629Z,7.20
2023-01-13T19:17:46.717Z,7.30
2023-01-13T19:20:14.829Z,7.40
2023-01-13T19:22:43.129Z,7.20
2023-01-13T19:25:12.361Z,7.10
2023-01-13T19:27:40.624Z,7.20
2023-01-13T19:30:11.825Z,7.30
2023-01-13T19:32:40.025Z,7.20
2023-01-13T19:35:09.092Z,7.30
2023-01-13T19:37:38.544Z,7.20
2023-01-13T19:40:09.411Z,7.20
2023-01-13T19:42:54.927Z,7.30
2023-01-13T19:45:27.797Z,7.10
2023-01-13T19:47:56.725Z,7.00
2023-01-13T19:50:25.438Z,6.90
2023-01-13T19:52:53.757Z,6.90
2023-01-13T19:55:22.560Z,6.90
2023-01-13T19:57:50.783Z,6.90
2023-01-13T20:00:21.232Z,7.00
2023-01-13T20:02:53.053Z,7.10
2023-01-13T20:05:25.974Z,7.10
2023-01-13T20:07:54.345Z,7.20
2023-01-13T20:10:24.326Z,6.90
2023-01-13T20:12:52.501Z,7.00
2023-01-13T20:15:20.781Z,7.10
2023-01-13T20:17:50.579Z,7.10
2023-01-13T20:20:20.526Z,7.10
2023-01-13T20:22:49.789Z,7.00
2023-01-13T20:25:18.783Z,7.20
2023-01-13T20:27:48.636Z,7.10
2023-01-13T20:30:17.609Z,7.10
2023-01-13T20:32:46.210Z,7.10
2023-01-13T20:35:16.139Z,7.40
2023-01-13T20:37:44.953Z,7.60
2023-01-13T20:40:16.554Z,7.30
2023-01-13T20:42:45.179Z,7.40
2023-01-13T20:45:17.631Z,7.30
2023-01-13T20:47:46.888Z,7.30
2023-01-13T20:50:17.481Z,7.30
2023-01-13T20:52:46.033Z,7.20
2023-01-13T20:55:14.730Z,7.30
2023-01-13T20:57:42.920Z,7.30
2023-01-13T21:00:12.063Z,7.20
2023-01-13T21:02:41.940Z,7.20
2023-01-13T21:05:10.315Z,7.10
2023-01-13T21:07:39.940Z,7.10
2023-01-13T21:10:11.288Z,7.20
2023-01-13T21:12:56.741Z,7.20
2023-01-13T21:15:25.811Z,6.90
2023-01-13T21:18:11.306Z,7.10
2023-01-13T21:20:40.815Z,7.30
2023-01-13T21:23:11.851Z,7.10
2023-01-13T21:25:40.280Z,7.20
2023-01-13T21:28:11.571Z,7.20
2023-01-13T21:30:40.764Z,7.20
2023-01-13T21:33:09.292Z,7.10
2023-01-13T21:35:39.963Z,7.10
2023-01-13T21:38:08.420Z,7.10
2023-01-13T21:40:38.045Z,6.90
2023-01-13T21:43:23.639Z,7.00
2023-01-13T21:46:09.385Z,7.20
2023-01-13T21:48:37.605Z,7.20
2023-01-13T21:51:05.920Z,7.40
2023-01-13T21:53:34.074Z,7.20
2023-01-13T21:56:03.571Z,7.10
2023-01-13T21:58:31.739Z,7.40
2023-01-13T22:01:03.922Z,7.50
2023-01-13T22:03:53.622Z,7.30
2023-01-13T22:06:21.843Z,7.30
2023-01-13T22:08:49.932Z,7.40
2023-01-13T22:11:19.379Z,7.40
2023-01-13T22:14:05.030Z,7.30
2023-01-13T22:16:36.098Z,7.30
2023-01-13T22:19:04.818Z,7.40
2023-01-13T22:21:32.939Z,7.30
2023-01-13T22:24:01.119Z,7.10
2023-01-13T22:26:30.504Z,7.10
2023-01-13T22:28:59.008Z,7.20
2023-01-13T22:31:27.185Z,7.20
2023-01-13T22:33:56.845Z,7.20
2023-01-13T22:36:25.129Z,7.30
2023-01-13T22:38:56.344Z,7.10
2023-01-13T22:41:24.604Z,7.00
2023-01-13T22:43:54.039Z,7.00
2023-01-13T22:46:22.927Z,6.90
2023-01-13T22:48:53.733Z,6.80
2023-01-13T22:51:22.884Z,6.90
2023-01-13T22:53:51.190Z,6.80
2023-01-13T22:56:21.313Z,6.80
2023-01-13T22:58:49.631Z,6.80
2023-01-13T23:01:19.189Z,6.90
2023-01-13T23:03:49.077Z,6.90
2023-01-13T23:06:18.144Z,6.80
2023-01-13T23:08:46.657Z,6.80
2023-01-13T23:11:17.035Z,6.70
2023-01-13T23:13:45.573Z,6.90
2023-01-13T23:16:15.262Z,6.90
2023-01-13T23:18:47.676Z,7.10
2023-01-13T23:21:18.300Z,7.10
2023-01-13T23:23:46.445Z,7.20
2023-01-13T23:26:17.232Z,6.90
2023-01-13T23:28:45.737Z,6.80
2023-01-13T23:31:15.313Z,6.90
2023-01-13T23:33:45.017Z,6.80
2023-01-13T23:36:14.665Z,6.90
2023-01-13T23:38:43.269Z,6.70
2023-01-13T23:41:14.763Z,7.00
2023-01-13T23:43:42.944Z,6.90
2023-01-13T23:46:13.927Z,6.80
2023-01-13T23:48:42.339Z,6.70
2023-01-13T23:51:13.440Z,6.90
2023-01-13T23:53:43.653Z,6.70
2023-01-13T23:56:15.468Z,6.80
2023-01-13T23:58:43.949Z,6.90
